sensor_id;sensor_type;location;lat;lon;timestamp;P1;durP1;ratioP1;P2;durP2;ratioP2
3843;SDS011;1937;51.444;6.484;2023-12-20T00:01:44;22.60;;;10.50;;
3843;SDS011;1937;51.444;6.484;2023-12-20T00:04:11;24.43;;;9.80;;
3843;SDS011;1937;51.444;6.484;2023-12-20T00:06:38;24.80;;;10.40;;
3843;SDS011;1937;51.444;6.484;2023-12-20T00:09:04;19.67;;;9.80;;
3843;SDS011;1937;51.444;6.484;2023-12-20T00:11:31;25.23;;;11.70;;
3843;SDS011;1937;51.444;6.484;2023-12-20T00:13:59;22.30;;;10.40;;
3843;SDS011;1937;51.444;6.484;2023-12-20T00:16:25;23.37;;;11.20;;
3843;SDS011;1937;51.444;6.484;2023-12-20T00:18:52;18.50;;;9.80;;
3843;SDS011;1937;51.444;6.484;2023-12-20T00:21:19;30.40;;;9.80;;
3843;SDS011;1937;51.444;6.484;2023-12-20T00:23:45;22.27;;;10.03;;
3843;SDS011;1937;51.444;6.484;2023-12-20T00:26:12;28.87;;;10.83;;
3843;SDS011;1937;51.444;6.484;2023-12-20T00:28:39;21.40;;;11.60;;
3843;SDS011;1937;51.444;6.484;2023-12-20T00:31:09;24.33;;;11.37;;
3843;SDS011;1937;51.444;6.484;2023-12-20T00:33:36;26.00;;;12.23;;
3843;SDS011;1937;51.444;6.484;2023-12-20T00:36:03;24.30;;;11.13;;
3843;SDS011;1937;51.444;6.484;2023-12-20T00:38:30;22.27;;;10.60;;
3843;SDS011;1937;51.444;6.484;2023-12-20T00:40:57;29.60;;;11.30;;
3843;SDS011;1937;51.444;6.484;2023-12-20T00:43:23;25.33;;;11.03;;
3843;SDS011;1937;51.444;6.484;2023-12-20T00:45:51;21.73;;;12.10;;
3843;SDS011;1937;51.444;6.484;2023-12-20T00:48:19;22.77;;;12.00;;
3843;SDS011;1937;51.444;6.484;2023-12-20T00:50:46;27.97;;;11.17;;
3843;SDS011;1937;51.444;6.484;2023-12-20T00:53:13;26.80;;;11.17;;
3843;SDS011;1937;51.444;6.484;2023-12-20T00:55:39;21.93;;;9.50;;
3843;SDS011;1937;51.444;6.484;2023-12-20T00:58:06;21.77;;;10.73;;
3843;SDS011;1937;51.444;6.484;2023-12-20T01:00:33;30.30;;;11.30;;
3843;SDS011;1937;51.444;6.484;2023-12-20T01:02:59;30.63;;;12.27;;
3843;SDS011;1937;51.444;6.484;2023-12-20T01:05:27;19.53;;;10.93;;
3843;SDS011;1937;51.444;6.484;2023-12-20T01:07:54;24.37;;;11.93;;
3843;SDS011;1937;51.444;6.484;2023-12-20T01:10:21;27.60;;;12.97;;
3843;SDS011;1937;51.444;6.484;2023-12-20T01:12:48;32.17;;;12.50;;
3843;SDS011;1937;51.444;6.484;2023-12-20T01:15:14;27.07;;;12.13;;
3843;SDS011;1937;51.444;6.484;2023-12-20T01:17:41;23.20;;;12.20;;
3843;SDS011;1937;51.444;6.484;2023-12-20T01:20:08;22.23;;;10.60;;
3843;SDS011;1937;51.444;6.484;2023-12-20T01:22:36;26.77;;;11.37;;
3843;SDS011;1937;51.444;6.484;2023-12-20T01:25:03;28.67;;;10.93;;
3843;SDS011;1937;51.444;6.484;2023-12-20T01:27:31;19.10;;;9.77;;
3843;SDS011;1937;51.444;6.484;2023-12-20T01:29:58;22.43;;;9.00;;
3843;SDS011;1937;51.444;6.484;2023-12-20T01:32:25;29.63;;;11.30;;
3843;SDS011;1937;51.444;6.484;2023-12-20T01:34:51;19.87;;;9.70;;
3843;SDS011;1937;51.444;6.484;2023-12-20T01:37:18;19.50;;;9.70;;
3843;SDS011;1937;51.444;6.484;2023-12-20T01:39:46;21.07;;;9.47;;
3843;SDS011;1937;51.444;6.484;2023-12-20T01:42:12;23.57;;;10.20;;
3843;SDS011;1937;51.444;6.484;2023-12-20T01:44:39;23.63;;;11.30;;
3843;SDS011;1937;51.444;6.484;2023-12-20T01:47:05;25.83;;;10.87;;
3843;SDS011;1937;51.444;6.484;2023-12-20T01:49:32;21.77;;;9.83;;
3843;SDS011;1937;51.444;6.484;2023-12-20T01:51:59;22.80;;;11.73;;
3843;SDS011;1937;51.444;6.484;2023-12-20T01:54:26;25.83;;;10.60;;
3843;SDS011;1937;51.444;6.484;2023-12-20T01:56:54;23.47;;;9.83;;
3843;SDS011;1937;51.444;6.484;2023-12-20T01:59:21;23.77;;;10.27;;
3843;SDS011;1937;51.444;6.484;2023-12-20T02:01:48;19.10;;;9.90;;
3843;SDS011;1937;51.444;6.484;2023-12-20T02:04:17;35.57;;;9.83;;
3843;SDS011;1937;51.444;6.484;2023-12-20T02:06:44;18.77;;;9.60;;
3843;SDS011;1937;51.444;6.484;2023-12-20T02:09:12;17.90;;;8.27;;
3843;SDS011;1937;51.444;6.484;2023-12-20T02:11:39;17.10;;;7.57;;
3843;SDS011;1937;51.444;6.484;2023-12-20T02:14:07;16.40;;;7.07;;
3843;SDS011;1937;51.444;6.484;2023-12-20T02:16:34;16.07;;;6.10;;
3843;SDS011;1937;51.444;6.484;2023-12-20T02:19:00;15.90;;;7.10;;
3843;SDS011;1937;51.444;6.484;2023-12-20T02:21:32;11.80;;;5.90;;
3843;SDS011;1937;51.444;6.484;2023-12-20T02:24:00;15.73;;;5.77;;
3843;SDS011;1937;51.444;6.484;2023-12-20T02:26:26;16.33;;;5.63;;
3843;SDS011;1937;51.444;6.484;2023-12-20T02:28:53;14.23;;;4.93;;
3843;SDS011;1937;51.444;6.484;2023-12-20T02:31:20;22.73;;;6.00;;
3843;SDS011;1937;51.444;6.484;2023-12-20T02:33:47;21.47;;;5.37;;
3843;SDS011;1937;51.444;6.484;2023-12-20T02:36:14;14.87;;;5.03;;
3843;SDS011;1937;51.444;6.484;2023-12-20T02:38:42;12.77;;;4.80;;
3843;SDS011;1937;51.444;6.484;2023-12-20T02:41:10;8.73;;;4.50;;
3843;SDS011;1937;51.444;6.484;2023-12-20T02:43:36;15.60;;;4.30;;
3843;SDS011;1937;51.444;6.484;2023-12-20T02:46:03;13.67;;;5.03;;
3843;SDS011;1937;51.444;6.484;2023-12-20T02:48:30;14.43;;;5.23;;
3843;SDS011;1937;51.444;6.484;2023-12-20T02:50:56;15.23;;;5.10;;
3843;SDS011;1937;51.444;6.484;2023-12-20T02:53:23;15.77;;;5.23;;
3843;SDS011;1937;51.444;6.484;2023-12-20T02:55:51;13.43;;;3.70;;
3843;SDS011;1937;51.444;6.484;2023-12-20T02:58:18;14.60;;;4.63;;
3843;SDS011;1937;51.444;6.484;2023-12-20T03:00:44;14.07;;;6.17;;
3843;SDS011;1937;51.444;6.484;2023-12-20T03:03:11;11.40;;;4.37;;
3843;SDS011;1937;51.444;6.484;2023-12-20T03:05:38;15.40;;;4.40;;
3843;SDS011;1937;51.444;6.484;2023-12-20T03:08:05;19.00;;;4.97;;
3843;SDS011;1937;51.444;6.484;2023-12-20T03:10:32;15.07;;;4.60;;
3843;SDS011;1937;51.444;6.484;2023-12-20T03:12:59;14.90;;;4.30;;
3843;SDS011;1937;51.444;6.484;2023-12-20T03:15:26;11.67;;;5.17;;
3843;SDS011;1937;51.444;6.484;2023-12-20T03:17:53;16.20;;;3.77;;
3843;SDS011;1937;51.444;6.484;2023-12-20T03:20:19;15.43;;;4.60;;
3843;SDS011;1937;51.444;6.484;2023-12-20T03:22:46;14.77;;;4.97;;
3843;SDS011;1937;51.444;6.484;2023-12-20T03:25:13;10.90;;;4.03;;
3843;SDS011;1937;51.444;6.484;2023-12-20T03:27:39;11.63;;;4.07;;
3843;SDS011;1937;51.444;6.484;2023-12-20T03:30:08;12.20;;;4.00;;
3843;SDS011;1937;51.444;6.484;2023-12-20T03:32:35;13.20;;;3.40;;
3843;SDS011;1937;51.444;6.484;2023-12-20T03:35:03;16.03;;;4.33;;
3843;SDS011;1937;51.444;6.484;2023-12-20T03:37:30;14.03;;;4.27;;
3843;SDS011;1937;51.444;6.484;2023-12-20T03:39:56;15.07;;;4.20;;
3843;SDS011;1937;51.444;6.484;2023-12-20T03:42:23;15.03;;;3.57;;
3843;SDS011;1937;51.444;6.484;2023-12-20T03:44:50;16.90;;;5.53;;
3843;SDS011;1937;51.444;6.484;2023-12-20T03:47:18;8.60;;;3.53;;
3843;SDS011;1937;51.444;6.484;2023-12-20T03:49:44;9.73;;;3.90;;
3843;SDS011;1937;51.444;6.484;2023-12-20T03:52:11;13.43;;;4.20;;
3843;SDS011;1937;51.444;6.484;2023-12-20T03:54:38;13.93;;;5.90;;
3843;SDS011;1937;51.444;6.484;2023-12-20T03:57:04;12.90;;;4.03;;
3843;SDS011;1937;51.444;6.484;2023-12-20T03:59:34;11.67;;;5.27;;
3843;SDS011;1937;51.444;6.484;2023-12-20T04:02:01;11.20;;;4.23;;
3843;SDS011;1937;51.444;6.484;2023-12-20T04:04:29;10.97;;;3.90;;
3843;SDS011;1937;51.444;6.484;2023-12-20T04:06:56;10.43;;;4.10;;
3843;SDS011;1937;51.444;6.484;2023-12-20T04:09:22;21.37;;;7.10;;
3843;SDS011;1937;51.444;6.484;2023-12-20T04:11:49;14.00;;;4.20;;
3843;SDS011;1937;51.444;6.484;2023-12-20T04:14:16;21.40;;;7.50;;
3843;SDS011;1937;51.444;6.484;2023-12-20T04:16:42;17.10;;;5.33;;
3843;SDS011;1937;51.444;6.484;2023-12-20T04:19:09;10.67;;;4.23;;
3843;SDS011;1937;51.444;6.484;2023-12-20T04:21:37;16.47;;;6.80;;
3843;SDS011;1937;51.444;6.484;2023-12-20T04:24:05;15.00;;;4.80;;
3843;SDS011;1937;51.444;6.484;2023-12-20T04:26:32;23.47;;;5.73;;
3843;SDS011;1937;51.444;6.484;2023-12-20T04:28:58;10.87;;;5.00;;
3843;SDS011;1937;51.444;6.484;2023-12-20T04:31:25;12.90;;;4.93;;
3843;SDS011;1937;51.444;6.484;2023-12-20T04:33:52;10.80;;;4.90;;
3843;SDS011;1937;51.444;6.484;2023-12-20T04:36:18;17.60;;;4.57;;
3843;SDS011;1937;51.444;6.484;2023-12-20T04:38:46;12.93;;;5.77;;
3843;SDS011;1937;51.444;6.484;2023-12-20T04:41:13;11.80;;;4.20;;
3843;SDS011;1937;51.444;6.484;2023-12-20T04:43:42;17.93;;;5.20;;
3843;SDS011;1937;51.444;6.484;2023-12-20T04:46:09;20.13;;;5.77;;
3843;SDS011;1937;51.444;6.484;2023-12-20T04:48:36;10.67;;;4.63;;
3843;SDS011;1937;51.444;6.484;2023-12-20T04:51:03;16.20;;;5.93;;
3843;SDS011;1937;51.444;6.484;2023-12-20T04:53:31;21.07;;;5.87;;
3843;SDS011;1937;51.444;6.484;2023-12-20T04:55:59;18.47;;;6.60;;
3843;SDS011;1937;51.444;6.484;2023-12-20T04:58:25;15.83;;;5.70;;
3843;SDS011;1937;51.444;6.484;2023-12-20T05:00:52;14.90;;;5.80;;
3843;SDS011;1937;51.444;6.484;2023-12-20T05:03:19;26.07;;;6.17;;
3843;SDS011;1937;51.444;6.484;2023-12-20T05:05:45;20.37;;;6.43;;
3843;SDS011;1937;51.444;6.484;2023-12-20T05:08:12;13.97;;;5.20;;
3843;SDS011;1937;51.444;6.484;2023-12-20T05:10:38;19.57;;;6.20;;
3843;SDS011;1937;51.444;6.484;2023-12-20T05:13:07;13.90;;;6.27;;
3843;SDS011;1937;51.444;6.484;2023-12-20T05:15:34;16.60;;;5.90;;
3843;SDS011;1937;51.444;6.484;2023-12-20T05:18:00;21.37;;;6.23;;
3843;SDS011;1937;51.444;6.484;2023-12-20T05:20:27;16.13;;;5.93;;
3843;SDS011;1937;51.444;6.484;2023-12-20T05:22:54;16.30;;;5.97;;
3843;SDS011;1937;51.444;6.484;2023-12-20T05:25:20;24.30;;;6.70;;
3843;SDS011;1937;51.444;6.484;2023-12-20T05:27:47;20.60;;;6.10;;
3843;SDS011;1937;51.444;6.484;2023-12-20T05:30:15;15.27;;;5.73;;
3843;SDS011;1937;51.444;6.484;2023-12-20T05:32:42;42.70;;;7.97;;
3843;SDS011;1937;51.444;6.484;2023-12-20T05:35:09;23.27;;;5.70;;
3843;SDS011;1937;51.444;6.484;2023-12-20T05:37:35;21.63;;;6.20;;
3843;SDS011;1937;51.444;6.484;2023-12-20T05:40:02;16.00;;;6.20;;
3843;SDS011;1937;51.444;6.484;2023-12-20T05:42:29;17.67;;;5.23;;
3843;SDS011;1937;51.444;6.484;2023-12-20T05:44:56;12.83;;;5.67;;
3843;SDS011;1937;51.444;6.484;2023-12-20T05:47:24;16.00;;;5.37;;
3843;SDS011;1937;51.444;6.484;2023-12-20T05:49:50;21.67;;;7.20;;
3843;SDS011;1937;51.444;6.484;2023-12-20T05:52:17;21.83;;;6.10;;
3843;SDS011;1937;51.444;6.484;2023-12-20T05:54:44;19.03;;;7.00;;
3843;SDS011;1937;51.444;6.484;2023-12-20T05:57:09;18.10;;;6.30;;
3843;SDS011;1937;51.444;6.484;2023-12-20T05:59:36;19.23;;;6.13;;
3843;SDS011;1937;51.444;6.484;2023-12-20T06:02:03;14.93;;;5.43;;
3843;SDS011;1937;51.444;6.484;2023-12-20T06:04:32;15.90;;;6.83;;
3843;SDS011;1937;51.444;6.484;2023-12-20T06:06:59;18.10;;;6.63;;
3843;SDS011;1937;51.444;6.484;2023-12-20T06:09:26;17.27;;;6.10;;
3843;SDS011;1937;51.444;6.484;2023-12-20T06:11:53;22.27;;;5.97;;
3843;SDS011;1937;51.444;6.484;2023-12-20T06:14:20;15.83;;;6.30;;
3843;SDS011;1937;51.444;6.484;2023-12-20T06:16:46;17.40;;;6.33;;
3843;SDS011;1937;51.444;6.484;2023-12-20T06:19:13;18.53;;;6.50;;
3843;SDS011;1937;51.444;6.484;2023-12-20T06:21:41;16.63;;;6.20;;
3843;SDS011;1937;51.444;6.484;2023-12-20T06:24:07;17.97;;;7.20;;
3843;SDS011;1937;51.444;6.484;2023-12-20T06:26:34;16.87;;;5.50;;
3843;SDS011;1937;51.444;6.484;2023-12-20T06:29:01;14.20;;;5.87;;
3843;SDS011;1937;51.444;6.484;2023-12-20T06:31:28;15.87;;;6.03;;
3843;SDS011;1937;51.444;6.484;2023-12-20T06:33:55;10.87;;;5.13;;
3843;SDS011;1937;51.444;6.484;2023-12-20T06:36:24;15.03;;;6.67;;
3843;SDS011;1937;51.444;6.484;2023-12-20T06:38:53;13.00;;;6.37;;
3843;SDS011;1937;51.444;6.484;2023-12-20T06:41:19;17.63;;;6.17;;
3843;SDS011;1937;51.444;6.484;2023-12-20T06:43:46;17.73;;;5.90;;
3843;SDS011;1937;51.444;6.484;2023-12-20T06:46:13;17.33;;;6.47;;
3843;SDS011;1937;51.444;6.484;2023-12-20T06:48:40;16.17;;;5.97;;
3843;SDS011;1937;51.444;6.484;2023-12-20T06:51:06;18.00;;;5.60;;
3843;SDS011;1937;51.444;6.484;2023-12-20T06:53:37;16.67;;;6.30;;
3843;SDS011;1937;51.444;6.484;2023-12-20T06:56:05;23.47;;;5.60;;
3843;SDS011;1937;51.444;6.484;2023-12-20T06:58:33;23.80;;;6.43;;
3843;SDS011;1937;51.444;6.484;2023-12-20T07:01:01;10.40;;;4.43;;
3843;SDS011;1937;51.444;6.484;2023-12-20T07:03:29;19.10;;;5.50;;
3843;SDS011;1937;51.444;6.484;2023-12-20T07:05:56;18.20;;;4.97;;
3843;SDS011;1937;51.444;6.484;2023-12-20T07:08:23;17.40;;;5.43;;
3843;SDS011;1937;51.444;6.484;2023-12-20T07:10:49;23.47;;;7.33;;
3843;SDS011;1937;51.444;6.484;2023-12-20T07:13:17;19.00;;;5.37;;
3843;SDS011;1937;51.444;6.484;2023-12-20T07:15:44;12.70;;;5.33;;
3843;SDS011;1937;51.444;6.484;2023-12-20T07:18:11;13.37;;;5.27;;
3843;SDS011;1937;51.444;6.484;2023-12-20T07:20:37;16.90;;;5.30;;
3843;SDS011;1937;51.444;6.484;2023-12-20T07:23:04;18.10;;;5.10;;
3843;SDS011;1937;51.444;6.484;2023-12-20T07:25:31;14.87;;;5.67;;
3843;SDS011;1937;51.444;6.484;2023-12-20T07:27:58;19.10;;;5.50;;
3843;SDS011;1937;51.444;6.484;2023-12-20T07:30:26;15.50;;;6.63;;
3843;SDS011;1937;51.444;6.484;2023-12-20T07:32:53;18.70;;;6.20;;
3843;SDS011;1937;51.444;6.484;2023-12-20T07:35:20;14.47;;;4.63;;
3843;SDS011;1937;51.444;6.484;2023-12-20T07:37:46;17.63;;;5.60;;
3843;SDS011;1937;51.444;6.484;2023-12-20T07:40:13;21.40;;;4.50;;
3843;SDS011;1937;51.444;6.484;2023-12-20T07:42:42;19.30;;;5.40;;
3843;SDS011;1937;51.444;6.484;2023-12-20T07:45:09;11.40;;;5.27;;
3843;SDS011;1937;51.444;6.484;2023-12-20T07:47:38;23.93;;;6.07;;
3843;SDS011;1937;51.444;6.484;2023-12-20T07:50:04;23.43;;;5.93;;
3843;SDS011;1937;51.444;6.484;2023-12-20T07:52:31;20.07;;;6.03;;
3843;SDS011;1937;51.444;6.484;2023-12-20T07:54:58;15.53;;;6.50;;
3843;SDS011;1937;51.444;6.484;2023-12-20T07:57:28;18.83;;;7.03;;
3843;SDS011;1937;51.444;6.484;2023-12-20T07:59:55;18.90;;;6.00;;
3843;SDS011;1937;51.444;6.484;2023-12-20T08:02:21;15.27;;;6.17;;
3843;SDS011;1937;51.444;6.484;2023-12-20T08:04:49;20.37;;;6.33;;
3843;SDS011;1937;51.444;6.484;2023-12-20T08:07:17;9.77;;;5.77;;
3843;SDS011;1937;51.444;6.484;2023-12-20T08:09:44;18.63;;;5.90;;
3843;SDS011;1937;51.444;6.484;2023-12-20T08:12:12;18.47;;;5.50;;
3843;SDS011;1937;51.444;6.484;2023-12-20T08:14:39;15.63;;;5.17;;
3843;SDS011;1937;51.444;6.484;2023-12-20T08:17:05;13.13;;;5.37;;
3843;SDS011;1937;51.444;6.484;2023-12-20T08:19:32;15.87;;;5.77;;
3843;SDS011;1937;51.444;6.484;2023-12-20T08:22:00;11.07;;;4.40;;
3843;SDS011;1937;51.444;6.484;2023-12-20T08:24:27;17.73;;;5.40;;
3843;SDS011;1937;51.444;6.484;2023-12-20T08:26:54;12.17;;;4.00;;
3843;SDS011;1937;51.444;6.484;2023-12-20T08:29:21;14.00;;;4.30;;
3843;SDS011;1937;51.444;6.484;2023-12-20T08:31:51;10.00;;;6.27;;
3843;SDS011;1937;51.444;6.484;2023-12-20T08:34:18;8.73;;;3.93;;
3843;SDS011;1937;51.444;6.484;2023-12-20T08:36:45;13.93;;;3.80;;
3843;SDS011;1937;51.444;6.484;2023-12-20T08:39:13;12.57;;;5.37;;
3843;SDS011;1937;51.444;6.484;2023-12-20T08:41:40;15.80;;;3.93;;
3843;SDS011;1937;51.444;6.484;2023-12-20T08:44:07;23.53;;;5.30;;
3843;SDS011;1937;51.444;6.484;2023-12-20T08:46:34;12.27;;;4.73;;
3843;SDS011;1937;51.444;6.484;2023-12-20T08:49:01;14.60;;;4.40;;
3843;SDS011;1937;51.444;6.484;2023-12-20T08:51:28;7.73;;;4.10;;
3843;SDS011;1937;51.444;6.484;2023-12-20T08:53:57;12.90;;;5.80;;
3843;SDS011;1937;51.444;6.484;2023-12-20T08:56:25;20.03;;;6.80;;
3843;SDS011;1937;51.444;6.484;2023-12-20T08:58:52;13.03;;;5.33;;
3843;SDS011;1937;51.444;6.484;2023-12-20T09:01:18;6.80;;;3.60;;
3843;SDS011;1937;51.444;6.484;2023-12-20T09:03:45;28.23;;;7.20;;
3843;SDS011;1937;51.444;6.484;2023-12-20T09:06:16;11.20;;;5.07;;
3843;SDS011;1937;51.444;6.484;2023-12-20T09:08:43;17.13;;;4.87;;
3843;SDS011;1937;51.444;6.484;2023-12-20T09:11:10;23.37;;;5.80;;
3843;SDS011;1937;51.444;6.484;2023-12-20T09:13:38;18.90;;;6.00;;
3843;SDS011;1937;51.444;6.484;2023-12-20T09:16:05;11.00;;;5.70;;
3843;SDS011;1937;51.444;6.484;2023-12-20T09:18:32;20.10;;;6.37;;
3843;SDS011;1937;51.444;6.484;2023-12-20T09:20:58;17.30;;;4.90;;
3843;SDS011;1937;51.444;6.484;2023-12-20T09:23:25;14.93;;;5.43;;
3843;SDS011;1937;51.444;6.484;2023-12-20T09:25:51;18.57;;;4.90;;
3843;SDS011;1937;51.444;6.484;2023-12-20T09:28:18;12.03;;;4.87;;
3843;SDS011;1937;51.444;6.484;2023-12-20T09:30:46;8.23;;;4.47;;
3843;SDS011;1937;51.444;6.484;2023-12-20T09:33:16;12.53;;;4.83;;
3843;SDS011;1937;51.444;6.484;2023-12-20T09:35:42;15.93;;;4.83;;
3843;SDS011;1937;51.444;6.484;2023-12-20T09:38:09;10.63;;;4.80;;
3843;SDS011;1937;51.444;6.484;2023-12-20T09:40:39;11.20;;;4.03;;
3843;SDS011;1937;51.444;6.484;2023-12-20T09:43:09;15.13;;;6.10;;
3843;SDS011;1937;51.444;6.484;2023-12-20T09:45:39;18.63;;;5.60;;
3843;SDS011;1937;51.444;6.484;2023-12-20T09:48:08;17.23;;;4.50;;
3843;SDS011;1937;51.444;6.484;2023-12-20T09:50:37;14.33;;;4.87;;
3843;SDS011;1937;51.444;6.484;2023-12-20T09:53:04;13.77;;;4.30;;
3843;SDS011;1937;51.444;6.484;2023-12-20T09:55:36;11.40;;;4.00;;
3843;SDS011;1937;51.444;6.484;2023-12-20T09:58:04;17.03;;;5.00;;
3843;SDS011;1937;51.444;6.484;2023-12-20T10:00:32;22.90;;;5.77;;
3843;SDS011;1937;51.444;6.484;2023-12-20T10:02:59;15.03;;;5.67;;
3843;SDS011;1937;51.444;6.484;2023-12-20T10:05:28;23.63;;;4.80;;
3843;SDS011;1937;51.444;6.484;2023-12-20T10:07:56;8.63;;;4.23;;
3843;SDS011;1937;51.444;6.484;2023-12-20T10:10:24;10.47;;;4.53;;
3843;SDS011;1937;51.444;6.484;2023-12-20T10:13:01;13.53;;;4.40;;
3843;SDS011;1937;51.444;6.484;2023-12-20T10:15:29;10.80;;;4.90;;
3843;SDS011;1937;51.444;6.484;2023-12-20T10:17:57;19.10;;;6.77;;
3843;SDS011;1937;51.444;6.484;2023-12-20T10:20:24;14.73;;;5.23;;
3843;SDS011;1937;51.444;6.484;2023-12-20T10:22:54;29.13;;;6.27;;
3843;SDS011;1937;51.444;6.484;2023-12-20T10:25:22;8.20;;;4.20;;
3843;SDS011;1937;51.444;6.484;2023-12-20T10:27:49;14.10;;;5.63;;
3843;SDS011;1937;51.444;6.484;2023-12-20T10:30:17;12.83;;;4.77;;
3843;SDS011;1937;51.444;6.484;2023-12-20T10:32:43;11.40;;;5.17;;
3843;SDS011;1937;51.444;6.484;2023-12-20T10:35:10;12.70;;;5.43;;
3843;SDS011;1937;51.444;6.484;2023-12-20T10:37:37;9.40;;;5.00;;
3843;SDS011;1937;51.444;6.484;2023-12-20T10:40:06;12.47;;;4.87;;
3843;SDS011;1937;51.444;6.484;2023-12-20T10:42:34;9.20;;;4.77;;
3843;SDS011;1937;51.444;6.484;2023-12-20T10:45:02;12.60;;;4.70;;
3843;SDS011;1937;51.444;6.484;2023-12-20T10:47:32;19.20;;;5.10;;
3843;SDS011;1937;51.444;6.484;2023-12-20T10:49:59;10.90;;;5.40;;
3843;SDS011;1937;51.444;6.484;2023-12-20T10:52:28;16.80;;;6.47;;
3843;SDS011;1937;51.444;6.484;2023-12-20T10:54:56;15.93;;;4.23;;
3843;SDS011;1937;51.444;6.484;2023-12-20T10:57:24;13.47;;;5.30;;
3843;SDS011;1937;51.444;6.484;2023-12-20T11:00:07;16.40;;;5.37;;
3843;SDS011;1937;51.444;6.484;2023-12-20T11:02:40;9.00;;;4.50;;
3843;SDS011;1937;51.444;6.484;2023-12-20T11:05:10;10.90;;;4.23;;
3843;SDS011;1937;51.444;6.484;2023-12-20T11:07:47;18.70;;;5.67;;
3843;SDS011;1937;51.444;6.484;2023-12-20T11:10:19;12.10;;;5.50;;
3843;SDS011;1937;51.444;6.484;2023-12-20T11:12:51;14.07;;;5.10;;
3843;SDS011;1937;51.444;6.484;2023-12-20T11:15:22;13.33;;;5.77;;
3843;SDS011;1937;51.444;6.484;2023-12-20T11:17:54;8.93;;;5.27;;
3843;SDS011;1937;51.444;6.484;2023-12-20T11:20:22;13.60;;;5.17;;
3843;SDS011;1937;51.444;6.484;2023-12-20T11:22:53;18.57;;;6.47;;
3843;SDS011;1937;51.444;6.484;2023-12-20T11:25:21;13.40;;;5.07;;
3843;SDS011;1937;51.444;6.484;2023-12-20T11:30:42;21.33;;;5.80;;
3843;SDS011;1937;51.444;6.484;2023-12-20T11:33:13;11.13;;;4.20;;
3843;SDS011;1937;51.444;6.484;2023-12-20T11:35:40;14.20;;;5.47;;
3843;SDS011;1937;51.444;6.484;2023-12-20T11:38:07;15.87;;;5.90;;
3843;SDS011;1937;51.444;6.484;2023-12-20T11:40:35;22.57;;;5.27;;
3843;SDS011;1937;51.444;6.484;2023-12-20T11:43:02;24.87;;;6.70;;
3843;SDS011;1937;51.444;6.484;2023-12-20T11:45:42;9.60;;;4.90;;
3843;SDS011;1937;51.444;6.484;2023-12-20T11:48:15;13.30;;;5.63;;
3843;SDS011;1937;51.444;6.484;2023-12-20T11:50:42;15.00;;;5.07;;
3843;SDS011;1937;51.444;6.484;2023-12-20T11:53:09;9.10;;;5.10;;
3843;SDS011;1937;51.444;6.484;2023-12-20T11:55:36;15.97;;;5.60;;
3843;SDS011;1937;51.444;6.484;2023-12-20T11:58:03;25.17;;;5.57;;
3843;SDS011;1937;51.444;6.484;2023-12-20T12:00:32;15.37;;;5.73;;
3843;SDS011;1937;51.444;6.484;2023-12-20T12:03:00;11.03;;;5.17;;
3843;SDS011;1937;51.444;6.484;2023-12-20T12:05:30;11.70;;;5.43;;
3843;SDS011;1937;51.444;6.484;2023-12-20T12:07:58;9.73;;;5.17;;
3843;SDS011;1937;51.444;6.484;2023-12-20T12:10:24;15.07;;;7.03;;
3843;SDS011;1937;51.444;6.484;2023-12-20T12:12:51;14.03;;;5.93;;
3843;SDS011;1937;51.444;6.484;2023-12-20T12:15:18;10.03;;;4.23;;
3843;SDS011;1937;51.444;6.484;2023-12-20T12:17:45;8.97;;;4.63;;
3843;SDS011;1937;51.444;6.484;2023-12-20T12:20:20;9.37;;;5.53;;
3843;SDS011;1937;51.444;6.484;2023-12-20T12:22:57;12.07;;;4.80;;
3843;SDS011;1937;51.444;6.484;2023-12-20T12:25:23;17.03;;;5.33;;
3843;SDS011;1937;51.444;6.484;2023-12-20T12:27:50;18.03;;;5.50;;
3843;SDS011;1937;51.444;6.484;2023-12-20T12:30:17;18.47;;;5.73;;
3843;SDS011;1937;51.444;6.484;2023-12-20T12:32:44;11.50;;;5.63;;
3843;SDS011;1937;51.444;6.484;2023-12-20T12:35:11;10.63;;;6.13;;
3843;SDS011;1937;51.444;6.484;2023-12-20T12:37:40;7.03;;;4.77;;
3843;SDS011;1937;51.444;6.484;2023-12-20T12:40:09;22.83;;;5.57;;
3843;SDS011;1937;51.444;6.484;2023-12-20T12:42:40;15.23;;;6.53;;
3843;SDS011;1937;51.444;6.484;2023-12-20T12:45:08;12.53;;;6.03;;
3843;SDS011;1937;51.444;6.484;2023-12-20T12:47:36;7.80;;;4.80;;
3843;SDS011;1937;51.444;6.484;2023-12-20T12:50:08;9.00;;;4.50;;
3843;SDS011;1937;51.444;6.484;2023-12-20T12:52:35;14.13;;;4.77;;
3843;SDS011;1937;51.444;6.484;2023-12-20T12:55:05;8.87;;;4.97;;
3843;SDS011;1937;51.444;6.484;2023-12-20T12:57:32;12.03;;;5.47;;
3843;SDS011;1937;51.444;6.484;2023-12-20T13:00:00;9.90;;;4.90;;
3843;SDS011;1937;51.444;6.484;2023-12-20T13:02:28;12.60;;;5.33;;
3843;SDS011;1937;51.444;6.484;2023-12-20T13:04:54;16.67;;;6.07;;
3843;SDS011;1937;51.444;6.484;2023-12-20T13:07:22;9.07;;;6.87;;
3843;SDS011;1937;51.444;6.484;2023-12-20T13:09:49;17.03;;;6.00;;
3843;SDS011;1937;51.444;6.484;2023-12-20T13:12:17;15.00;;;5.87;;
3843;SDS011;1937;51.444;6.484;2023-12-20T13:14:44;11.37;;;5.77;;
3843;SDS011;1937;51.444;6.484;2023-12-20T13:17:10;13.77;;;5.90;;
3843;SDS011;1937;51.444;6.484;2023-12-20T13:19:37;19.40;;;6.33;;
3843;SDS011;1937;51.444;6.484;2023-12-20T13:22:04;12.73;;;6.10;;
3843;SDS011;1937;51.444;6.484;2023-12-20T13:24:31;9.93;;;5.97;;
3843;SDS011;1937;51.444;6.484;2023-12-20T13:26:58;14.03;;;5.90;;
3843;SDS011;1937;51.444;6.484;2023-12-20T13:29:27;13.63;;;7.20;;
3843;SDS011;1937;51.444;6.484;2023-12-20T13:31:53;13.00;;;6.07;;
3843;SDS011;1937;51.444;6.484;2023-12-20T13:34:20;17.03;;;6.90;;
3843;SDS011;1937;51.444;6.484;2023-12-20T13:36:47;15.00;;;6.37;;
3843;SDS011;1937;51.444;6.484;2023-12-20T13:39:15;16.43;;;6.40;;
3843;SDS011;1937;51.444;6.484;2023-12-20T13:41:43;18.73;;;7.63;;
3843;SDS011;1937;51.444;6.484;2023-12-20T13:44:09;11.07;;;5.70;;
3843;SDS011;1937;51.444;6.484;2023-12-20T13:46:38;14.57;;;6.17;;
3843;SDS011;1937;51.444;6.484;2023-12-20T13:49:06;13.03;;;7.17;;
3843;SDS011;1937;51.444;6.484;2023-12-20T13:51:32;21.50;;;6.63;;
3843;SDS011;1937;51.444;6.484;2023-12-20T13:53:59;21.43;;;7.90;;
3843;SDS011;1937;51.444;6.484;2023-12-20T13:56:26;14.20;;;7.37;;
3843;SDS011;1937;51.444;6.484;2023-12-20T13:58:54;16.53;;;7.00;;
3843;SDS011;1937;51.444;6.484;2023-12-20T14:01:21;15.90;;;7.50;;
3843;SDS011;1937;51.444;6.484;2023-12-20T14:03:48;16.50;;;7.60;;
3843;SDS011;1937;51.444;6.484;2023-12-20T14:06:15;11.57;;;6.60;;
3843;SDS011;1937;51.444;6.484;2023-12-20T14:08:42;12.40;;;6.90;;
3843;SDS011;1937;51.444;6.484;2023-12-20T14:11:09;12.07;;;6.80;;
3843;SDS011;1937;51.444;6.484;2023-12-20T14:13:36;12.67;;;7.23;;
3843;SDS011;1937;51.444;6.484;2023-12-20T14:16:03;16.67;;;7.77;;
3843;SDS011;1937;51.444;6.484;2023-12-20T14:18:30;15.90;;;7.40;;
3843;SDS011;1937;51.444;6.484;2023-12-20T14:20:58;12.97;;;8.07;;
3843;SDS011;1937;51.444;6.484;2023-12-20T14:23:24;12.63;;;6.63;;
3843;SDS011;1937;51.444;6.484;2023-12-20T14:25:51;14.07;;;7.30;;
3843;SDS011;1937;51.444;6.484;2023-12-20T14:28:17;13.20;;;6.93;;
3843;SDS011;1937;51.444;6.484;2023-12-20T14:30:44;20.87;;;7.23;;
3843;SDS011;1937;51.444;6.484;2023-12-20T14:33:10;11.63;;;5.97;;
3843;SDS011;1937;51.444;6.484;2023-12-20T14:35:37;22.80;;;7.07;;
3843;SDS011;1937;51.444;6.484;2023-12-20T14:38:05;13.70;;;7.20;;
3843;SDS011;1937;51.444;6.484;2023-12-20T14:40:31;15.77;;;6.50;;
3843;SDS011;1937;51.444;6.484;2023-12-20T14:42:58;14.07;;;6.60;;
3843;SDS011;1937;51.444;6.484;2023-12-20T14:45:25;13.43;;;5.90;;
3843;SDS011;1937;51.444;6.484;2023-12-20T14:47:52;13.17;;;6.87;;
3843;SDS011;1937;51.444;6.484;2023-12-20T14:50:19;13.10;;;6.67;;
3843;SDS011;1937;51.444;6.484;2023-12-20T14:52:45;17.70;;;7.70;;
3843;SDS011;1937;51.444;6.484;2023-12-20T14:55:13;14.50;;;7.43;;
3843;SDS011;1937;51.444;6.484;2023-12-20T14:57:40;16.87;;;7.00;;
3843;SDS011;1937;51.444;6.484;2023-12-20T15:00:07;18.40;;;8.00;;
3843;SDS011;1937;51.444;6.484;2023-12-20T15:02:34;17.10;;;7.70;;
3843;SDS011;1937;51.444;6.484;2023-12-20T15:05:00;14.40;;;7.10;;